Kruzenshtern — UCVK — position and weather

sailwx.info

Track history (hours):
 
Tides and Currents Weather Stations Pressure Air Temp Water Temp Dewpoint Dewpoint Depression Visibility Wind Speed Wind Dir Waves Ship Positions

Kruzenshtern (Russia)

ex-Padua.

Last reported at 2017-Sep-24 03:41 UTC. Time now 2017-Nov-20 15:44 UTC.
Position N 54°38' E 019°58'.
Warning: this ship's position is 57 days out of date.

Length 114 m; draft 6.2 m.

Type: Sailing vessel. MMSI: 273243700.

Date/timePositionNaut miles runAvg speedWind from/ knotsBaromVisibWave heightAir tempDewpointWater temp
2017-Sep-24 03:41N 54°38' E 019°58'1 8.1
2017-Sep-24 03:30N 54°38' E 019°56'4 7.1
2017-Sep-24 02:59N 54°40' E 019°50'3 6.6
2017-Sep-24 02:30N 54°40' E 019°45'3 5.6
2017-Sep-24 02:00N 54°38' E 019°41'1 1.3
2017-Sep-24 01:27N 54°38' E 019°41'0 0.9
2017-Sep-24 00:56N 54°37' E 019°41'0 0.9
2017-Sep-24 00:30N 54°37' E 019°42'1 0.8
2017-Sep-23 23:13N 54°37' E 019°43'0 0.7
2017-Sep-23 22:50N 54°36' E 019°44'1 1.4
2017-Sep-23 22:23N 54°36' E 019°44'2 3.9
2017-Sep-23 21:51N 54°38' E 019°44'2 6.5
2017-Sep-23 21:30N 54°40' E 019°44'36 0.8
2017-Sep-22 01:55N 55°08' E 019°04'2 5.9
2017-Sep-22 01:30N 55°08' E 018°59'5 6.0
2017-Sep-22 00:43N 55°08' E 018°51'1 5.9
2017-Sep-22 00:29N 55°08' E 018°49'212 6.4
2017-Sep-20 15:32N 54°41' E 012°43'0 6.9
2017-Sep-20 15:30N 54°40' E 012°43'3 6.9
2017-Sep-20 15:01N 54°39' E 012°38'12 6.9
2017-Sep-20 13:17N 54°33' E 012°20'2 6.9
2017-Sep-20 13:01N 54°32' E 012°17'4 7.0
2017-Sep-20 12:28N 54°28' E 012°15'18 7.8
2017-Sep-20 10:13N 54°12' E 012°05'1 2.5
2017-Sep-20 09:46N 54°11' E 012°06'0 0.0
2017-Sep-20 09:28N 54°11' E 012°06'0 0.0
2017-Sep-20 06:46N 54°11' E 012°06'0 0.0
2017-Sep-20 06:28N 54°11' E 012°06'0 0.0
2017-Sep-20 02:01N 54°11' E 012°06'0 0.0
2017-Sep-20 01:58N 54°11' E 012°06'0 0.0
2017-Sep-20 00:31N 54°11' E 012°06'0 0.0
2017-Sep-20 00:28N 54°11' E 012°06'0 0.0
2017-Sep-19 23:31N 54°11' E 012°06'0 0.0
2017-Sep-19 23:28N 54°11' E 012°06'0 0.0
2017-Sep-19 22:58N 54°11' E 012°06'0 0.0
2017-Sep-19 22:28N 54°11' E 012°06'0 0.0
2017-Sep-19 16:46N 54°11' E 012°06'0 0.0
2017-Sep-19 16:28N 54°11' E 012°06'0 0.0
2017-Sep-19 12:01N 54°11' E 012°06'0 0.0
2017-Sep-19 11:55N 54°11' E 012°06'0 0.0
2017-Sep-19 10:31N 54°11' E 012°06'0 0.0
2017-Sep-19 10:28N 54°11' E 012°06'0 0.0
2017-Sep-19 08:01N 54°11' E 012°06'0 0.0
2017-Sep-19 07:58N 54°11' E 012°06'0 0.0
2017-Sep-19 06:31N 54°11' E 012°06'0 0.1
2017-Sep-19 06:28N 54°11' E 012°06'0 0.0
2017-Sep-19 05:58N 54°11' E 012°06'0 0.0
2017-Sep-19 05:28N 54°11' E 012°06'0 0.0
2017-Sep-19 03:46N 54°11' E 012°06'0 0.0
2017-Sep-19 03:28N 54°11' E 012°06'0 0.0
2017-Sep-19 02:46N 54°11' E 012°06'0 0.0
2017-Sep-19 02:28N 54°11' E 012°06'0 0.0
2017-Sep-19 01:58N 54°11' E 012°06'0 0.0
2017-Sep-19 01:28N 54°11' E 012°06'0 0.0
2017-Sep-18 23:16N 54°11' E 012°06'0 0.0
2017-Sep-18 22:58N 54°11' E 012°06'0 0.0
2017-Sep-18 19:31N 54°11' E 012°06'0 0.0
2017-Sep-18 19:28N 54°11' E 012°06'0 0.0
2017-Sep-18 15:31N 54°11' E 012°06'0 0.0
2017-Sep-18 15:28N 54°11' E 012°06'0 0.0
2017-Sep-18 13:16N 54°11' E 012°06'0 0.0
2017-Sep-18 12:58N 54°11' E 012°06'0 0.0
2017-Sep-18 12:28N 54°11' E 012°06'0 0.0
2017-Sep-18 11:58N 54°11' E 012°06'0 0.0
2017-Sep-18 07:16N 54°11' E 012°06'0 0.0
2017-Sep-18 06:58N 54°11' E 012°06'0 0.0
2017-Sep-18 06:30N 54°11' E 012°06'2 3.6
2017-Sep-18 06:01N 54°12' E 012°04'12 5.9
2017-Sep-18 04:03N 54°21' E 011°51'0 2.3
2017-Sep-18 04:01N 54°21' E 011°51'1 1.0
2017-Sep-18 03:31N 54°21' E 011°52'0 0.7
2017-Sep-18 03:01N 54°21' E 011°52'1 0.6
2017-Sep-18 02:02N 54°20' E 011°53'0 1.1
2017-Sep-18 02:01N 54°20' E 011°53'0 0.9
2017-Sep-18 01:31N 54°20' E 011°53'0 0.8
2017-Sep-18 01:01N 54°19' E 011°53'1 0.6
2017-Sep-17 22:33N 54°18' E 011°54'0 0.6
2017-Sep-17 22:31N 54°18' E 011°54'0 0.4
2017-Sep-17 22:01N 54°18' E 011°54'0 0.6
2017-Sep-17 21:31N 54°17' E 011°54'0 0.7
2017-Sep-17 21:01N 54°17' E 011°54'0 0.5
2017-Sep-17 20:31N 54°17' E 011°54'5 3.8
2017-Sep-17 19:17N 54°21' E 011°50'1 1.9
2017-Sep-17 19:01N 54°21' E 011°50'0 0.8
2017-Sep-17 18:31N 54°21' E 011°50'0 0.8
2017-Sep-17 18:01N 54°21' E 011°50'1 0.7
2017-Sep-17 16:17N 54°19' E 011°52'0 0.6
2017-Sep-17 16:01N 54°19' E 011°52'0 0.5
2017-Sep-17 15:30N 54°19' E 011°52'0 0.3
2017-Sep-17 15:01N 54°19' E 011°52'0 0.3
2017-Sep-17 13:17N 54°19' E 011°52'0 0.3
2017-Sep-17 13:01N 54°19' E 011°52'0 0.4
2017-Sep-17 12:31N 54°20' E 011°52'2 1.1
2017-Sep-17 10:32N 54°21' E 011°55'0 6.1
2017-Sep-17 10:31N 54°21' E 011°56'1 2.6
2017-Sep-17 10:01N 54°22' E 011°57'0 0.6
2017-Sep-17 09:31N 54°21' E 011°57'1 0.8
2017-Sep-17 08:02N 54°21' E 011°56'0 1.3
2017-Sep-17 08:01N 54°21' E 011°56'1 1.5
2017-Sep-17 07:31N 54°20' E 011°54'3 1.4
2017-Sep-17 05:33N 54°19' E 011°50'0 0.8
2017-Sep-17 05:31N 54°19' E 011°50'0 0.3
2017-Sep-17 05:00N 54°19' E 011°50'2 3.8
2017-Sep-17 04:31N 54°20' E 011°52'9 5.3
2017-Sep-17 02:47N 54°26' E 012°04'2 6.1
2017-Sep-17 02:31N 54°27' E 012°06'3 5.6
2017-Sep-17 02:01N 54°28' E 012°11'3 5.9
2017-Sep-17 01:31N 54°31' E 012°12'13 5.9
2017-Sep-16 23:17N 54°41' E 012°26'2 6.4
2017-Sep-16 23:01N 54°42' E 012°29'3 6.2
2017-Sep-16 22:31N 54°44' E 012°33'  
Track history (hours):
 
Tides and Currents Weather Stations Pressure Air Temp Water Temp Dewpoint Dewpoint Depression Visibility Wind Speed Wind Dir Waves Ship Positions

Kruzenshtern (Russia)

ex-Padua.

Last reported at 2017-Sep-24 03:41 UTC. Time now 2017-Nov-20 15:44 UTC.
Position N 54°38' E 019°58'.
Warning: this ship's position is 57 days out of date.

Length 114 m; draft 6.2 m.

Type: Sailing vessel. MMSI: 273243700.

Date/timePositionNaut miles runAvg speedWind from/ knotsBaromVisibWave heightAir tempDewpointWater temp
2017-Sep-24 03:41N 54°38' E 019°58'1 8.1
2017-Sep-24 03:30N 54°38' E 019°56'4 7.1
2017-Sep-24 02:59N 54°40' E 019°50'3 6.6
2017-Sep-24 02:30N 54°40' E 019°45'3 5.6
2017-Sep-24 02:00N 54°38' E 019°41'1 1.3
2017-Sep-24 01:27N 54°38' E 019°41'0 0.9
2017-Sep-24 00:56N 54°37' E 019°41'0 0.9
2017-Sep-24 00:30N 54°37' E 019°42'1 0.8
2017-Sep-23 23:13N 54°37' E 019°43'0 0.7
2017-Sep-23 22:50N 54°36' E 019°44'1 1.4
2017-Sep-23 22:23N 54°36' E 019°44'2 3.9
2017-Sep-23 21:51N 54°38' E 019°44'2 6.5
2017-Sep-23 21:30N 54°40' E 019°44'36 0.8
2017-Sep-22 01:55N 55°08' E 019°04'2 5.9
2017-Sep-22 01:30N 55°08' E 018°59'5 6.0
2017-Sep-22 00:43N 55°08' E 018°51'1 5.9
2017-Sep-22 00:29N 55°08' E 018°49'212 6.4
2017-Sep-20 15:32N 54°41' E 012°43'0 6.9
2017-Sep-20 15:30N 54°40' E 012°43'3 6.9
2017-Sep-20 15:01N 54°39' E 012°38'12 6.9
2017-Sep-20 13:17N 54°33' E 012°20'2 6.9
2017-Sep-20 13:01N 54°32' E 012°17'4 7.0
2017-Sep-20 12:28N 54°28' E 012°15'18 7.8
2017-Sep-20 10:13N 54°12' E 012°05'1 2.5
2017-Sep-20 09:46N 54°11' E 012°06'0 0.0
2017-Sep-20 09:28N 54°11' E 012°06'0 0.0
2017-Sep-20 06:46N 54°11' E 012°06'0 0.0
2017-Sep-20 06:28N 54°11' E 012°06'0 0.0
2017-Sep-20 02:01N 54°11' E 012°06'0 0.0
2017-Sep-20 01:58N 54°11' E 012°06'0 0.0
2017-Sep-20 00:31N 54°11' E 012°06'0 0.0
2017-Sep-20 00:28N 54°11' E 012°06'0 0.0
2017-Sep-19 23:31N 54°11' E 012°06'0 0.0
2017-Sep-19 23:28N 54°11' E 012°06'0 0.0
2017-Sep-19 22:58N 54°11' E 012°06'0 0.0
2017-Sep-19 22:28N 54°11' E 012°06'0 0.0
2017-Sep-19 16:46N 54°11' E 012°06'0 0.0
2017-Sep-19 16:28N 54°11' E 012°06'0 0.0
2017-Sep-19 12:01N 54°11' E 012°06'0 0.0
2017-Sep-19 11:55N 54°11' E 012°06'0 0.0
2017-Sep-19 10:31N 54°11' E 012°06'0 0.0
2017-Sep-19 10:28N 54°11' E 012°06'0 0.0
2017-Sep-19 08:01N 54°11' E 012°06'0 0.0
2017-Sep-19 07:58N 54°11' E 012°06'0 0.0
2017-Sep-19 06:31N 54°11' E 012°06'0 0.1
2017-Sep-19 06:28N 54°11' E 012°06'0 0.0
2017-Sep-19 05:58N 54°11' E 012°06'0 0.0
2017-Sep-19 05:28N 54°11' E 012°06'0 0.0
2017-Sep-19 03:46N 54°11' E 012°06'0 0.0
2017-Sep-19 03:28N 54°11' E 012°06'0 0.0
2017-Sep-19 02:46N 54°11' E 012°06'0 0.0
2017-Sep-19 02:28N 54°11' E 012°06'0 0.0
2017-Sep-19 01:58N 54°11' E 012°06'0 0.0
2017-Sep-19 01:28N 54°11' E 012°06'0 0.0
2017-Sep-18 23:16N 54°11' E 012°06'0 0.0
2017-Sep-18 22:58N 54°11' E 012°06'0 0.0
2017-Sep-18 19:31N 54°11' E 012°06'0 0.0
2017-Sep-18 19:28N 54°11' E 012°06'0 0.0
2017-Sep-18 15:31N 54°11' E 012°06'0 0.0
2017-Sep-18 15:28N 54°11' E 012°06'0 0.0
2017-Sep-18 13:16N 54°11' E 012°06'0 0.0
2017-Sep-18 12:58N 54°11' E 012°06'0 0.0
2017-Sep-18 12:28N 54°11' E 012°06'0 0.0
2017-Sep-18 11:58N 54°11' E 012°06'0 0.0
2017-Sep-18 07:16N 54°11' E 012°06'0 0.0
2017-Sep-18 06:58N 54°11' E 012°06'0 0.0
2017-Sep-18 06:30N 54°11' E 012°06'2 3.6
2017-Sep-18 06:01N 54°12' E 012°04'12 5.9
2017-Sep-18 04:03N 54°21' E 011°51'0 2.3
2017-Sep-18 04:01N 54°21' E 011°51'1 1.0
2017-Sep-18 03:31N 54°21' E 011°52'0 0.7
2017-Sep-18 03:01N 54°21' E 011°52'1 0.6
2017-Sep-18 02:02N 54°20' E 011°53'0 1.1
2017-Sep-18 02:01N 54°20' E 011°53'0 0.9
2017-Sep-18 01:31N 54°20' E 011°53'0 0.8
2017-Sep-18 01:01N 54°19' E 011°53'1 0.6
2017-Sep-17 22:33N 54°18' E 011°54'0 0.6
2017-Sep-17 22:31N 54°18' E 011°54'0 0.4
2017-Sep-17 22:01N 54°18' E 011°54'0 0.6
2017-Sep-17 21:31N 54°17' E 011°54'0 0.7
2017-Sep-17 21:01N 54°17' E 011°54'0 0.5
2017-Sep-17 20:31N 54°17' E 011°54'5 3.8
2017-Sep-17 19:17N 54°21' E 011°50'1 1.9
2017-Sep-17 19:01N 54°21' E 011°50'0 0.8
2017-Sep-17 18:31N 54°21' E 011°50'0 0.8
2017-Sep-17 18:01N 54°21' E 011°50'1 0.7
2017-Sep-17 16:17N 54°19' E 011°52'0 0.6
2017-Sep-17 16:01N 54°19' E 011°52'0 0.5
2017-Sep-17 15:30N 54°19' E 011°52'0 0.3
2017-Sep-17 15:01N 54°19' E 011°52'0 0.3
2017-Sep-17 13:17N 54°19' E 011°52'0 0.3
2017-Sep-17 13:01N 54°19' E 011°52'0 0.4
2017-Sep-17 12:31N 54°20' E 011°52'2 1.1
2017-Sep-17 10:32N 54°21' E 011°55'0 6.1
2017-Sep-17 10:31N 54°21' E 011°56'1 2.6
2017-Sep-17 10:01N 54°22' E 011°57'0 0.6
2017-Sep-17 09:31N 54°21' E 011°57'1 0.8
2017-Sep-17 08:02N 54°21' E 011°56'0 1.3
2017-Sep-17 08:01N 54°21' E 011°56'1 1.5
2017-Sep-17 07:31N 54°20' E 011°54'3 1.4
2017-Sep-17 05:33N 54°19' E 011°50'0 0.8
2017-Sep-17 05:31N 54°19' E 011°50'0 0.3
2017-Sep-17 05:00N 54°19' E 011°50'2 3.8
2017-Sep-17 04:31N 54°20' E 011°52'9 5.3
2017-Sep-17 02:47N 54°26' E 012°04'2 6.1
2017-Sep-17 02:31N 54°27' E 012°06'3 5.6
2017-Sep-17 02:01N 54°28' E 012°11'3 5.9
2017-Sep-17 01:31N 54°31' E 012°12'13 5.9
2017-Sep-16 23:17N 54°41' E 012°26'2 6.4
2017-Sep-16 23:01N 54°42' E 012°29'3 6.2
2017-Sep-16 22:31N 54°44' E 012°33'  

Dump ship's entire track history